createdAt,value
2022-10-11T00:00:12.249Z,47.0990
2022-10-11T00:01:14.450Z,47.0870
2022-10-11T00:02:16.619Z,47.1400
2022-10-11T00:03:18.830Z,47.1400
2022-10-11T00:04:21.046Z,47.0990
2022-10-11T00:05:23.236Z,47.1110
2022-10-11T00:06:23.278Z,47.1840
2022-10-11T00:07:25.557Z,47.1440
2022-10-11T00:08:27.728Z,47.1380
2022-10-11T00:09:29.951Z,47.0810
2022-10-11T00:10:32.313Z,47.0490
2022-10-11T00:11:34.402Z,47.0280
2022-10-11T00:12:36.638Z,47.0310
2022-10-11T00:13:38.883Z,47.0410
2022-10-11T00:14:41.161Z,47.1210
2022-10-11T00:15:43.562Z,47.0830
2022-10-11T00:17:32.872Z,47.1740
2022-10-11T00:18:34.946Z,47.1110
2022-10-11T00:19:37.085Z,47.0830
2022-10-11T00:20:39.212Z,47.0890
2022-10-11T00:21:41.391Z,47.0710
2022-10-11T00:22:43.520Z,47.1370
2022-10-11T00:23:45.687Z,47.2010
2022-10-11T00:24:47.872Z,47.1770
2022-10-11T00:25:50.064Z,47.1370
2022-10-11T00:26:52.257Z,47.1770
2022-10-11T00:27:54.415Z,47.2080
2022-10-11T00:28:56.702Z,47.1730
2022-10-11T00:29:58.841Z,47.1730
2022-10-11T00:31:01.446Z,47.1320
2022-10-11T00:32:03.320Z,47.1200
2022-10-11T00:33:05.503Z,47.1610
2022-10-11T00:34:07.728Z,47.1770
2022-10-11T00:35:09.956Z,47.1770
2022-10-11T00:36:12.179Z,47.1510
2022-10-11T00:37:14.519Z,47.1140
2022-10-11T00:38:16.609Z,47.1200
2022-10-11T00:39:18.817Z,47.1000
2022-10-11T00:40:21.040Z,47.0750
2022-10-11T00:41:23.242Z,47.0700
2022-10-11T00:42:23.335Z,47.0940
2022-10-11T00:43:25.496Z,47.1450
2022-10-11T00:44:27.684Z,47.1510
2022-10-11T00:45:29.848Z,47.1260
2022-10-11T00:46:32.079Z,47.0880
2022-10-11T00:47:34.317Z,47.0580
2022-10-11T00:48:36.530Z,47.0580
2022-10-11T00:49:38.745Z,47.0520
2022-10-11T00:50:40.948Z,47.0600
2022-10-11T00:51:43.110Z,47.0640
2022-10-11T00:52:45.352Z,47.0310
2022-10-11T00:53:47.541Z,47.0190
2022-10-11T00:54:49.733Z,47.0700
2022-10-11T00:55:51.932Z,47.1040
2022-10-11T00:56:54.137Z,47.0580
2022-10-11T00:57:56.398Z,47.0520
2022-10-11T00:58:56.427Z,47.1040
2022-10-11T00:59:58.652Z,47.1570
2022-10-11T01:01:00.933Z,47.0920
2022-10-11T01:02:03.025Z,47.0640
2022-10-11T01:03:05.212Z,47.0480
2022-10-11T01:04:07.357Z,47.0250
2022-10-11T01:05:28.138Z,47.0250
2022-10-11T01:06:11.736Z,47.0700
2022-10-11T01:07:13.986Z,47.0540
2022-10-11T01:08:16.240Z,47.0880
2022-10-11T01:09:18.408Z,47.0640
2022-10-11T01:10:20.591Z,47.0600
2022-10-11T01:11:22.841Z,47.0600
2022-10-11T01:12:25.105Z,47.0290
2022-10-11T01:13:27.593Z,47.0390
2022-10-11T01:14:27.478Z,47.0580
2022-10-11T01:15:29.741Z,47.0230
2022-10-11T01:16:32.020Z,47.0640
2022-10-11T01:17:34.319Z,47.1350
2022-10-11T01:18:36.615Z,47.1330
2022-10-11T01:19:38.949Z,47.1140
2022-10-11T01:20:41.141Z,47.1140
2022-10-11T01:21:41.281Z,47.1000
2022-10-11T01:22:43.562Z,47.1040
2022-10-11T01:23:45.858Z,47.1630
2022-10-11T01:24:47.994Z,47.1490
2022-10-11T01:25:50.235Z,47.1000
2022-10-11T01:26:52.502Z,47.1220
2022-10-11T01:27:54.771Z,47.1510
2022-10-11T01:28:57.085Z,47.2250
2022-10-11T01:29:59.174Z,47.1670
2022-10-11T01:31:01.407Z,47.0860
2022-10-11T01:32:03.670Z,47.0980
2022-10-11T01:33:03.771Z,47.0540
2022-10-11T01:34:06.006Z,47.1800
2022-10-11T01:35:08.249Z,47.1840
2022-10-11T01:36:10.509Z,47.1630
2022-10-11T01:37:12.777Z,47.1080
2022-10-11T01:38:15.041Z,47.1720
2022-10-11T01:39:17.309Z,47.1680
2022-10-11T01:40:19.496Z,47.1040
2022-10-11T01:41:21.743Z,47.0980
2022-10-11T01:42:21.848Z,47.0540
2022-10-11T01:43:24.112Z,47.0800
2022-10-11T01:44:26.426Z,47.0820
2022-10-11T01:45:28.645Z,47.1340
2022-10-11T01:46:30.921Z,47.1840
2022-10-11T01:47:33.198Z,47.1780
2022-10-11T01:48:35.501Z,47.1080
2022-10-11T01:49:37.783Z,47.0880
2022-10-11T01:51:23.117Z,47.1270
2022-10-11T01:52:25.140Z,47.1050
2022-10-11T01:53:27.303Z,47.0640
2022-10-11T01:54:44.089Z,47.0520
2022-10-11T01:55:31.608Z,47.1720
2022-10-11T01:56:33.752Z,47.1840
2022-10-11T01:57:33.788Z,47.2370
2022-10-11T01:58:35.980Z,47.2530
2022-10-11T01:59:38.183Z,47.2020
2022-10-11T02:00:40.423Z,47.1860
2022-10-11T02:01:42.675Z,47.2350
2022-10-11T02:02:44.826Z,47.1900
2022-10-11T02:03:47.060Z,47.1400
2022-10-11T02:04:49.245Z,47.1210
2022-10-11T02:05:51.471Z,47.0590
2022-10-11T02:06:53.641Z,47.0650
2022-10-11T02:07:55.832Z,47.1030
2022-10-11T02:08:58.061Z,47.1780
2022-10-11T02:10:00.266Z,47.2550
2022-10-11T02:11:02.462Z,47.2750
2022-10-11T02:12:04.626Z,47.2690
2022-10-11T02:13:06.837Z,47.2140
2022-10-11T02:14:09.038Z,47.1860
2022-10-11T02:15:11.291Z,47.1860
2022-10-11T02:16:11.437Z,47.1560
2022-10-11T02:17:13.654Z,47.1190
2022-10-11T02:18:15.900Z,47.1110
2022-10-11T02:19:18.175Z,47.1270
2022-10-11T02:20:20.428Z,47.1660
2022-10-11T02:21:22.731Z,47.1370
2022-10-11T02:22:24.982Z,47.1190
2022-10-11T02:23:25.091Z,47.1450
2022-10-11T02:24:27.336Z,47.2300
2022-10-11T02:25:29.590Z,47.2180
2022-10-11T02:26:31.871Z,47.2000
2022-10-11T02:27:34.103Z,47.2000
2022-10-11T02:28:36.428Z,47.1860
2022-10-11T02:29:38.596Z,47.1310
2022-10-11T02:30:40.861Z,47.1940
2022-10-11T02:31:43.151Z,47.1860
2022-10-11T02:32:45.359Z,47.1860
2022-10-11T02:33:45.451Z,47.1800
2022-10-11T02:34:47.695Z,47.1490
2022-10-11T02:35:49.896Z,47.1800
2022-10-11T02:36:52.151Z,47.1680
2022-10-11T02:37:54.343Z,47.2020
2022-10-11T02:38:56.575Z,47.2200
2022-10-11T02:39:58.795Z,47.2200
2022-10-11T02:41:01.021Z,47.2020
2022-10-11T02:42:03.278Z,47.2480
2022-10-11T02:43:05.463Z,47.2080
2022-10-11T02:44:07.634Z,47.2580
2022-10-11T02:45:09.812Z,47.2580
2022-10-11T02:46:12.037Z,47.2140
2022-10-11T02:47:14.308Z,47.2740
2022-10-11T02:48:14.356Z,47.2700
2022-10-11T02:49:16.581Z,47.1660
2022-10-11T02:50:18.850Z,47.1960
2022-10-11T02:51:21.111Z,47.1840
2022-10-11T02:52:23.413Z,47.1430
2022-10-11T02:53:25.675Z,47.1270
2022-10-11T02:54:27.980Z,47.1590
2022-10-11T02:55:28.118Z,47.2760
2022-10-11T02:56:30.379Z,47.2800
2022-10-11T02:57:32.685Z,47.2360
2022-10-11T02:58:34.919Z,47.1660
2022-10-11T02:59:37.152Z,47.1950
2022-10-11T03:00:39.380Z,47.2070
2022-10-11T03:01:41.676Z,47.2190
2022-10-11T03:02:43.876Z,47.2130
2022-10-11T03:03:46.098Z,47.2070
2022-10-11T03:04:48.390Z,47.2010
2022-10-11T03:05:48.546Z,47.1320
2022-10-11T03:06:50.786Z,47.2010
2022-10-11T03:07:53.082Z,47.1970
2022-10-11T03:08:55.311Z,47.2390
2022-10-11T03:09:57.566Z,47.2190
2022-10-11T03:10:59.802Z,47.2940
2022-10-11T03:12:02.090Z,47.3000
2022-10-11T03:13:04.400Z,47.2820
2022-10-11T03:14:04.485Z,47.3350
2022-10-11T03:15:06.736Z,47.3450
2022-10-11T03:16:09.527Z,47.3550
2022-10-11T03:17:34.459Z,47.3490
2022-10-11T03:18:13.543Z,47.3910
2022-10-11T03:19:19.342Z,47.3450
2022-10-11T03:20:17.979Z,47.3790
2022-10-11T03:21:20.246Z,47.3450
2022-10-11T03:22:22.493Z,47.3330
2022-10-11T03:23:22.645Z,47.3270
2022-10-11T03:24:24.927Z,47.3910
2022-10-11T03:25:27.236Z,47.3890
2022-10-11T03:26:29.523Z,47.3570
2022-10-11T03:27:31.854Z,47.2880
2022-10-11T03:28:34.231Z,47.3390
2022-10-11T03:29:34.270Z,47.4140
2022-10-11T03:30:36.577Z,47.4640
2022-10-11T03:31:38.874Z,47.5110
2022-10-11T03:32:41.170Z,47.6190
2022-10-11T03:33:43.467Z,47.5230
2022-10-11T03:34:45.753Z,47.4890
2022-10-11T03:35:48.049Z,47.4500
2022-10-11T03:36:48.223Z,47.5470
2022-10-11T03:37:50.462Z,47.5790
2022-10-11T03:38:52.799Z,47.5850
2022-10-11T03:39:55.035Z,47.6150
2022-10-11T03:40:57.331Z,47.6090
2022-10-11T03:41:59.610Z,47.6480
2022-10-11T03:43:01.866Z,47.6280
2022-10-11T03:44:04.148Z,47.6220
2022-10-11T03:45:04.220Z,47.5740
2022-10-11T03:46:06.951Z,47.5970
2022-10-11T03:47:08.732Z,47.6150
2022-10-11T03:48:10.977Z,47.5980
2022-10-11T03:49:13.259Z,47.5800
2022-10-11T03:50:15.486Z,47.5920
2022-10-11T03:51:17.736Z,47.5800
2022-10-11T03:52:19.999Z,47.5970
2022-10-11T03:53:22.213Z,47.6500
2022-10-11T03:54:22.329Z,47.7250
2022-10-11T03:55:24.564Z,47.6850
2022-10-11T03:56:26.821Z,47.6660
2022-10-11T03:57:29.056Z,47.7190
2022-10-11T03:58:31.311Z,47.7310
2022-10-11T03:59:33.566Z,47.7370
2022-10-11T04:00:35.809Z,47.7370
2022-10-11T04:01:38.100Z,47.6670
2022-10-11T04:02:40.284Z,47.6290
2022-10-11T04:03:40.376Z,47.6230
2022-10-11T04:04:42.682Z,47.6040
2022-10-11T04:05:44.942Z,47.7310
2022-10-11T04:06:47.229Z,47.7350
2022-10-11T04:07:49.532Z,47.7350
2022-10-11T04:08:51.788Z,47.6850
2022-10-11T04:09:54.107Z,47.7760
2022-10-11T04:10:56.341Z,47.7920
2022-10-11T04:11:56.480Z,47.7150
2022-10-11T04:12:58.753Z,47.6660
2022-10-11T04:14:01.032Z,47.7470
2022-10-11T04:15:03.381Z,47.6780
2022-10-11T04:16:06.126Z,47.6950
2022-10-11T04:17:07.879Z,47.6950
2022-10-11T04:18:10.161Z,47.7010
2022-10-11T04:19:10.292Z,47.6600
2022-10-11T04:20:12.595Z,47.7230
2022-10-11T04:21:14.846Z,47.7150
2022-10-11T04:22:17.118Z,47.6880
2022-10-11T04:23:19.423Z,47.6880
2022-10-11T04:24:21.691Z,47.7490
2022-10-11T04:25:23.952Z,47.8000
2022-10-11T04:26:26.070Z,47.8120
2022-10-11T04:27:28.228Z,47.7880
2022-10-11T04:28:30.431Z,47.7820
2022-10-11T04:29:33.020Z,47.7010
2022-10-11T04:30:34.802Z,47.7370
2022-10-11T04:31:36.949Z,47.6740
2022-10-11T04:32:37.033Z,47.5930
2022-10-11T04:33:39.291Z,47.6030
2022-10-11T04:34:41.426Z,47.7310
2022-10-11T04:35:43.754Z,47.6660
2022-10-11T04:36:49.764Z,47.6720
2022-10-11T04:37:48.183Z,47.7820
2022-10-11T04:38:50.449Z,47.7560
2022-10-11T04:39:52.687Z,47.7250
2022-10-11T04:40:55.027Z,47.6720
2022-10-11T04:41:55.123Z,47.6660
2022-10-11T04:42:57.380Z,47.5990
2022-10-11T04:43:59.645Z,47.6090
2022-10-11T04:45:01.868Z,47.6220
2022-10-11T04:46:04.618Z,47.5360
2022-10-11T04:47:06.409Z,47.5280
2022-10-11T04:48:08.650Z,47.5120
2022-10-11T04:49:10.937Z,47.5280
2022-10-11T04:50:13.215Z,47.5690
2022-10-11T04:51:13.379Z,47.6090
2022-10-11T04:52:15.623Z,47.6030
2022-10-11T04:53:17.906Z,47.5560
2022-10-11T04:54:20.188Z,47.5990
2022-10-11T04:55:22.442Z,47.6050
2022-10-11T04:56:24.763Z,47.6800
2022-10-11T04:57:26.994Z,47.7030
2022-10-11T04:58:29.285Z,47.6680
2022-10-11T04:59:29.349Z,47.6500
2022-10-11T05:00:31.511Z,47.5520
2022-10-11T05:01:33.864Z,47.4810
2022-10-11T05:02:36.063Z,47.4760
2022-10-11T05:03:37.177Z,47.5810
2022-10-11T05:04:38.383Z,47.7830
2022-10-11T05:05:40.628Z,47.7650
2022-10-11T05:06:42.895Z,47.7810
2022-10-11T05:07:45.087Z,47.7420
2022-10-11T05:08:47.276Z,47.7480
2022-10-11T05:09:49.525Z,47.7360
2022-10-11T05:10:51.717Z,47.6190
2022-10-11T05:11:53.956Z,47.6660
2022-10-11T05:12:56.078Z,47.7090
2022-10-11T05:13:58.267Z,47.6880
2022-10-11T05:15:00.484Z,47.7480
2022-10-11T05:16:04.893Z,47.8330
2022-10-11T05:17:04.948Z,47.9090
2022-10-11T05:18:07.063Z,47.8900
2022-10-11T05:19:09.283Z,47.8360
2022-10-11T05:20:11.509Z,47.7840
2022-10-11T05:21:11.568Z,47.8360
2022-10-11T05:22:13.804Z,47.7980
2022-10-11T05:23:16.033Z,47.9210
2022-10-11T05:24:18.276Z,47.9960
2022-10-11T05:25:20.571Z,48.0430
2022-10-11T05:26:22.821Z,48.1400
2022-10-11T05:27:25.114Z,48.0900
2022-10-11T05:28:27.454Z,48.0290
2022-10-11T05:29:29.617Z,47.9590
2022-10-11T05:30:31.879Z,47.8060
2022-10-11T05:31:31.963Z,47.9030
2022-10-11T05:32:34.242Z,47.9660
2022-10-11T05:33:36.493Z,47.9940
2022-10-11T05:34:38.738Z,48.0080
2022-10-11T05:35:40.990Z,47.9860
2022-10-11T05:36:43.257Z,48.0940
2022-10-11T05:37:45.497Z,48.0210
2022-10-11T05:38:47.680Z,48.0410
2022-10-11T05:39:49.914Z,48.0940
2022-10-11T05:40:50.027Z,48.1400
2022-10-11T05:41:52.233Z,48.1180
2022-10-11T05:42:54.504Z,48.1530
2022-10-11T05:43:56.716Z,48.1760
2022-10-11T05:44:58.911Z,48.2680
2022-10-11T05:46:01.111Z,48.4020
2022-10-11T05:47:03.266Z,48.4770
2022-10-11T05:48:05.526Z,48.5510
2022-10-11T05:49:07.715Z,48.6280
2022-10-11T05:50:09.976Z,48.6780
2022-10-11T05:51:12.201Z,48.7590
2022-10-11T05:52:14.456Z,48.7490
2022-10-11T05:53:14.606Z,48.7590
2022-10-11T05:54:16.852Z,48.7650
2022-10-11T05:55:19.101Z,48.8060
2022-10-11T05:56:21.391Z,48.5040
2022-10-11T05:57:23.539Z,48.4190
2022-10-11T05:58:25.778Z,48.4230
2022-10-11T05:59:27.976Z,48.5410
2022-10-11T06:00:30.204Z,48.6370
2022-10-11T06:01:32.661Z,48.7020
2022-10-11T06:03:47.772Z,48.7300
2022-10-11T06:04:49.864Z,48.7260
2022-10-11T06:05:55.821Z,48.7010
2022-10-11T06:06:52.181Z,48.7380
2022-10-11T06:07:52.279Z,48.6630
2022-10-11T06:08:54.606Z,48.5930
2022-10-11T06:09:56.778Z,48.6630
2022-10-11T06:10:59.006Z,48.4940
2022-10-11T06:12:01.214Z,48.3660
2022-10-11T06:13:03.424Z,48.4030
2022-10-11T06:14:05.692Z,48.3770
2022-10-11T06:15:07.914Z,48.3830
2022-10-11T06:16:10.109Z,48.3950
2022-10-11T06:17:12.281Z,48.4120
2022-10-11T06:18:14.515Z,48.4180
2022-10-11T06:19:16.771Z,48.3930
2022-10-11T06:20:16.832Z,48.3610
2022-10-11T06:21:19.071Z,48.4480
2022-10-11T06:22:21.310Z,48.4060
2022-10-11T06:23:23.546Z,48.3830
2022-10-11T06:24:25.822Z,48.3990
2022-10-11T06:25:28.042Z,48.3790
2022-10-11T06:26:30.282Z,48.3550
2022-10-11T06:27:32.547Z,48.2450
2022-10-11T06:28:34.851Z,48.2260
2022-10-11T06:29:34.892Z,48.2910
2022-10-11T06:30:37.105Z,48.3040
2022-10-11T06:31:39.361Z,48.2850
2022-10-11T06:32:41.620Z,48.2790
2022-10-11T06:33:43.862Z,48.2850
2022-10-11T06:34:46.169Z,48.2200
2022-10-11T06:35:48.328Z,48.2550
2022-10-11T06:36:50.513Z,48.2080
2022-10-11T06:37:52.735Z,48.1940
2022-10-11T06:38:52.887Z,48.2350
2022-10-11T06:39:55.235Z,48.2140
2022-10-11T06:40:57.411Z,48.2080
2022-10-11T06:41:59.658Z,48.1630
2022-10-11T06:43:01.961Z,48.1480
2022-10-11T06:44:04.246Z,48.1230
2022-10-11T06:45:06.560Z,48.1170
2022-10-11T06:46:08.990Z,48.0770
2022-10-11T06:47:11.066Z,48.0440
2022-10-11T06:48:11.149Z,48.0130
2022-10-11T06:49:13.394Z,48.0420
2022-10-11T06:50:15.657Z,48.1110
2022-10-11T06:51:17.873Z,48.0720
2022-10-11T06:52:20.119Z,48.0200
2022-10-11T06:53:22.363Z,47.9950
2022-10-11T06:54:24.603Z,48.0070
2022-10-11T06:55:26.871Z,48.0360
2022-10-11T06:56:29.099Z,47.9950
2022-10-11T06:57:31.326Z,48.0070
2022-10-11T06:58:31.446Z,48.0030
2022-10-11T06:59:33.657Z,48.1100
2022-10-11T07:00:35.889Z,48.1940
2022-10-11T07:01:38.273Z,48.1790
2022-10-11T07:02:40.365Z,48.1220
2022-10-11T07:03:42.605Z,48.0300
2022-10-11T07:04:44.848Z,48.0650
2022-10-11T07:05:47.147Z,48.0370
2022-10-11T07:06:49.346Z,48.0060
2022-10-11T07:07:51.591Z,48.0030
2022-10-11T07:08:53.796Z,48.0130
2022-10-11T07:09:53.881Z,47.9790
2022-10-11T07:10:56.160Z,47.9320
2022-10-11T07:11:58.350Z,47.9000
2022-10-11T07:13:00.568Z,47.9730
2022-10-11T07:14:02.699Z,47.9730
2022-10-11T07:15:04.899Z,47.9340
2022-10-11T07:16:07.826Z,47.9850
2022-10-11T07:17:09.365Z,47.9790
2022-10-11T07:18:11.607Z,47.9420
2022-10-11T07:19:13.859Z,47.9260
2022-10-11T07:20:13.963Z,47.9000
2022-10-11T07:21:16.211Z,47.9140
2022-10-11T07:22:18.377Z,47.8510
2022-10-11T07:23:20.566Z,47.8450
2022-10-11T07:24:22.814Z,48.0060
2022-10-11T07:25:25.025Z,47.9540
2022-10-11T07:26:27.247Z,47.9800
2022-10-11T07:27:29.417Z,47.9860
2022-10-11T07:28:31.807Z,48.0130
2022-10-11T07:29:33.952Z,48.0370
2022-10-11T07:30:36.167Z,48.0350
2022-10-11T07:31:38.610Z,48.1100
2022-10-11T07:32:40.666Z,48.0530
2022-10-11T07:33:40.761Z,48.0290
2022-10-11T07:34:42.975Z,48.0780
2022-10-11T07:35:48.401Z,48.0060
2022-10-11T07:36:47.477Z,47.9320
2022-10-11T07:37:49.703Z,47.8390
2022-10-11T07:38:51.959Z,47.9080
2022-10-11T07:39:54.205Z,47.8940
2022-10-11T07:40:56.455Z,47.8240
2022-10-11T07:41:58.747Z,47.9560
2022-10-11T07:43:00.997Z,47.9140
2022-10-11T07:44:01.140Z,47.8510
2022-10-11T07:45:03.371Z,47.8330
2022-10-11T07:46:06.112Z,47.8690
2022-10-11T07:47:11.262Z,47.8240
2022-10-11T07:48:09.954Z,47.9040
2022-10-11T07:49:12.148Z,48.0000
2022-10-11T07:50:14.379Z,47.9320
2022-10-11T07:51:16.623Z,47.8570
2022-10-11T07:52:18.900Z,47.8690
2022-10-11T07:53:21.094Z,47.8330
2022-10-11T07:54:23.279Z,47.7660
2022-10-11T07:55:23.389Z,47.7290
2022-10-11T07:56:25.614Z,47.6850
2022-10-11T07:57:27.882Z,47.5980
2022-10-11T07:58:30.114Z,47.5800
2022-10-11T07:59:32.400Z,47.5860
2022-10-11T08:00:34.681Z,47.5980
2022-10-11T08:01:37.094Z,47.5580
2022-10-11T08:02:39.259Z,47.6040
2022-10-11T08:03:41.533Z,47.6430
2022-10-11T08:04:41.684Z,47.6610
2022-10-11T08:05:43.985Z,47.6720
2022-10-11T08:06:50.946Z,47.7820
2022-10-11T08:07:48.628Z,47.8570
2022-10-11T08:08:50.901Z,47.7780
2022-10-11T08:09:53.208Z,47.6920
2022-10-11T08:10:53.375Z,47.6630
2022-10-11T08:11:55.684Z,47.6210
2022-10-11T08:13:03.370Z,47.6080
2022-10-11T08:14:00.289Z,47.6790
2022-10-11T08:15:02.561Z,47.7290
2022-10-11T08:16:05.237Z,47.7410
2022-10-11T08:17:04.977Z,47.8060
2022-10-11T08:18:07.298Z,47.8250
2022-10-11T08:19:07.436Z,47.7660
2022-10-11T08:20:09.778Z,47.7660
2022-10-11T08:21:12.039Z,47.7410
2022-10-11T08:22:14.359Z,47.7980
2022-10-11T08:23:14.531Z,47.7060
2022-10-11T08:24:16.783Z,47.8470
2022-10-11T08:25:19.075Z,47.9160
2022-10-11T08:26:21.376Z,47.8850
2022-10-11T08:27:23.685Z,47.8750
2022-10-11T08:28:26.140Z,47.9160
2022-10-11T08:29:26.138Z,47.9910
2022-10-11T08:30:28.417Z,47.9320
2022-10-11T08:31:30.728Z,47.8410
2022-10-11T08:32:33.008Z,47.7300
2022-10-11T08:33:35.302Z,47.7380
2022-10-11T08:34:37.537Z,47.7650
2022-10-11T08:35:39.762Z,47.7990
2022-10-11T08:36:41.972Z,47.7590
2022-10-11T08:37:44.221Z,47.6900
2022-10-11T08:38:44.329Z,47.6980
2022-10-11T08:39:46.510Z,47.7300
2022-10-11T08:40:48.757Z,47.7730
2022-10-11T08:41:51.018Z,47.7610
2022-10-11T08:42:53.245Z,47.8230
2022-10-11T08:43:55.516Z,47.7730
2022-10-11T08:45:13.102Z,47.8790
2022-10-11T08:45:59.889Z,47.8300
2022-10-11T08:47:02.167Z,47.7300
2022-10-11T08:48:04.394Z,47.7140
2022-10-11T08:49:06.681Z,47.6270
2022-10-11T08:50:06.757Z,47.5960
2022-10-11T08:51:09.009Z,47.6390
2022-10-11T08:52:11.247Z,47.5740
2022-10-11T08:53:13.451Z,47.6040
2022-10-11T08:54:15.709Z,47.6230
2022-10-11T08:55:17.917Z,47.5800
2022-10-11T08:56:20.193Z,47.5760
2022-10-11T08:57:22.471Z,47.4960
2022-10-11T08:58:24.727Z,47.4940
2022-10-11T08:59:24.878Z,47.5700
2022-10-11T09:00:27.145Z,47.5060
2022-10-11T09:01:29.462Z,47.4680
2022-10-11T09:02:49.255Z,47.4620
2022-10-11T09:03:33.850Z,47.5580
2022-10-11T09:04:36.124Z,47.5000
2022-10-11T09:05:38.315Z,47.5060
2022-10-11T09:06:40.540Z,47.5120
2022-10-11T09:07:42.759Z,47.4760
2022-10-11T09:08:44.922Z,47.4880
2022-10-11T09:09:47.149Z,47.4760
2022-10-11T09:10:49.305Z,47.4370
2022-10-11T09:12:47.394Z,47.5270
2022-10-11T09:13:49.481Z,47.5700
2022-10-11T09:14:51.718Z,47.5280
2022-10-11T09:15:53.882Z,47.4490
2022-10-11T09:16:56.103Z,47.4070
2022-10-11T09:17:58.369Z,47.4210
2022-10-11T09:19:00.599Z,47.3640
2022-10-11T09:20:02.909Z,47.4070
2022-10-11T09:21:05.025Z,47.4940
2022-10-11T09:22:07.251Z,47.4940
2022-10-11T09:23:09.483Z,47.4760
2022-10-11T09:24:09.538Z,47.4270
2022-10-11T09:25:11.791Z,47.3990
2022-10-11T09:26:13.981Z,47.3280
2022-10-11T09:27:16.198Z,47.3560
2022-10-11T09:28:18.553Z,47.3400
2022-10-11T09:29:20.631Z,47.2970
2022-10-11T09:30:22.924Z,47.3400
2022-10-11T09:31:25.159Z,47.3030
2022-10-11T09:32:27.424Z,47.3030
2022-10-11T09:33:29.712Z,47.2900
2022-10-11T09:34:31.972Z,47.3100
2022-10-11T09:35:32.123Z,47.2530
2022-10-11T09:36:34.385Z,47.1950
2022-10-11T09:37:36.626Z,47.2190
2022-10-11T09:38:38.858Z,47.2370
2022-10-11T09:39:41.082Z,47.2030
2022-10-11T09:40:43.565Z,47.1850
2022-10-11T09:41:45.633Z,47.2690
2022-10-11T09:42:47.864Z,47.2770
2022-10-11T09:43:50.113Z,47.2380
2022-10-11T09:44:52.397Z,47.2520
2022-10-11T09:45:54.696Z,47.2640
2022-10-11T09:46:56.937Z,47.2520
2022-10-11T09:47:59.152Z,47.2920
2022-10-11T09:49:01.388Z,47.2940
2022-10-11T09:50:03.598Z,47.3320
2022-10-11T09:51:05.879Z,47.4660
2022-10-11T09:52:08.018Z,47.5240
2022-10-11T09:53:10.239Z,47.5220
2022-10-11T09:54:12.457Z,47.5510
2022-10-11T09:55:15.350Z,47.6060
2022-10-11T09:56:14.747Z,47.6040
2022-10-11T09:57:16.942Z,47.4840
2022-10-11T09:58:19.174Z,47.4210
2022-10-11T09:59:21.405Z,47.3690
2022-10-11T10:00:23.678Z,47.3130
2022-10-11T10:01:25.985Z,47.3860
2022-10-11T10:02:28.221Z,47.3740
2022-10-11T10:03:30.491Z,47.3050
2022-10-11T10:04:32.777Z,47.2460
2022-10-11T10:05:32.872Z,47.2780
2022-10-11T10:06:35.164Z,47.3050
2022-10-11T10:07:37.407Z,47.2380
2022-10-11T10:08:39.666Z,47.2660
2022-10-11T10:09:41.940Z,47.2660
2022-10-11T10:10:44.169Z,47.2260
2022-10-11T10:11:46.421Z,47.2380
2022-10-11T10:12:48.614Z,47.2580
2022-10-11T10:13:50.841Z,47.2320
2022-10-11T10:14:53.053Z,47.2380
2022-10-11T10:15:55.170Z,47.1950
2022-10-11T10:16:57.367Z,47.1790
2022-10-11T10:17:57.408Z,47.2070
2022-10-11T10:18:59.607Z,47.1570
2022-10-11T10:20:01.838Z,47.1230
2022-10-11T10:21:04.094Z,47.2070
2022-10-11T10:23:38.693Z,47.3290
2022-10-11T10:24:40.800Z,47.3170
2022-10-11T10:25:43.812Z,47.2580
2022-10-11T10:26:45.209Z,47.2260
2022-10-11T10:27:47.437Z,47.2070
2022-10-11T10:28:49.752Z,47.1200
2022-10-11T10:29:51.841Z,47.0120
2022-10-11T10:30:54.063Z,47.0020
2022-10-11T10:32:14.214Z,46.9720
2022-10-11T10:32:56.306Z,46.9840
2022-10-11T10:33:58.538Z,46.9600
2022-10-11T10:35:00.679Z,46.9250
2022-10-11T10:36:05.286Z,46.9110
2022-10-11T10:36:43.531Z,46.8990
2022-10-11T10:37:45.649Z,46.8850
2022-10-11T10:38:52.295Z,46.8460
2022-10-11T10:39:49.919Z,46.8340
2022-10-11T10:40:52.007Z,46.8080
2022-10-11T10:41:56.205Z,46.8160
2022-10-11T10:42:58.329Z,46.8060
2022-10-11T10:44:00.463Z,46.7910
2022-10-11T10:45:06.330Z,46.7730
2022-10-11T10:46:05.145Z,46.8650
2022-10-11T10:47:04.622Z,46.8300
2022-10-11T10:48:06.744Z,46.7790
2022-10-11T10:50:08.927Z,46.7850
2022-10-11T10:51:11.032Z,46.7550
2022-10-11T10:52:13.133Z,46.7320
2022-10-11T10:53:17.334Z,46.6680
2022-10-11T10:54:19.469Z,46.6580
2022-10-11T10:55:21.613Z,46.6540
2022-10-11T10:56:21.592Z,46.6740
2022-10-11T10:57:23.739Z,46.6480
2022-10-11T10:58:25.920Z,46.6740
2022-10-11T10:59:28.082Z,46.6420
2022-10-11T11:00:30.266Z,46.6600
2022-10-11T11:01:32.442Z,46.6350
2022-10-11T11:02:40.746Z,46.6130
2022-10-11T11:03:38.781Z,46.6940
2022-10-11T11:04:40.908Z,46.6760
2022-10-11T11:05:40.930Z,46.7220
2022-10-11T11:06:43.076Z,46.7510
2022-10-11T11:07:45.208Z,46.7140
2022-10-11T11:08:47.367Z,46.6920
2022-10-11T11:09:49.492Z,46.7040
2022-10-11T11:10:53.801Z,46.7390
2022-10-11T11:11:53.723Z,46.7360
2022-10-11T11:12:58.006Z,46.5120
2022-10-11T11:13:55.867Z,46.5960
2022-10-11T11:14:58.111Z,46.5940
2022-10-11T11:16:00.308Z,46.6710
2022-10-11T11:17:02.497Z,46.6970
2022-10-11T11:18:04.707Z,46.5620
2022-10-11T11:19:06.882Z,46.3370
2022-10-11T11:20:09.079Z,46.5160
2022-10-11T11:21:11.511Z,46.5680
2022-10-11T11:22:13.554Z,46.6740
2022-10-11T11:23:15.756Z,46.6540
2022-10-11T11:24:17.947Z,46.6420
2022-10-11T11:25:20.131Z,46.6310
2022-10-11T11:26:22.364Z,46.6250
2022-10-11T11:27:24.558Z,46.6370
2022-10-11T11:28:26.915Z,46.6020
2022-10-11T11:29:26.946Z,46.6060
2022-10-11T11:30:31.346Z,46.5260
2022-10-11T11:31:31.469Z,46.4930
2022-10-11T11:32:33.679Z,46.4850
2022-10-11T11:33:35.925Z,46.4710
2022-10-11T11:34:38.173Z,46.4230
2022-10-11T11:35:40.370Z,46.4030
2022-10-11T11:36:42.607Z,46.2030
2022-10-11T11:37:44.801Z,46.2880
2022-10-11T11:38:47.080Z,46.3140
2022-10-11T11:39:47.146Z,46.3880
2022-10-11T11:40:49.405Z,46.3560
2022-10-11T11:41:51.718Z,46.3750
2022-10-11T11:42:54.142Z,46.4190
2022-10-11T11:43:56.248Z,46.4570
2022-10-11T11:44:58.545Z,46.1910
2022-10-11T11:46:00.832Z,46.2450
2022-10-11T11:47:03.141Z,46.0310
2022-10-11T11:48:03.182Z,46.1160
2022-10-11T11:49:08.539Z,46.1520
2022-10-11T11:50:07.748Z,46.1720
2022-10-11T11:51:10.036Z,46.1520
2022-10-11T11:52:12.352Z,46.1460
2022-10-11T11:53:14.627Z,46.1340
2022-10-11T11:54:16.886Z,46.1960
2022-10-11T11:55:19.201Z,46.2340
2022-10-11T11:56:19.277Z,46.2340
2022-10-11T11:57:21.611Z,46.1980
2022-10-11T11:58:23.829Z,46.1860
2022-10-11T11:59:26.075Z,46.1780
2022-10-11T12:00:28.323Z,46.1240
2022-10-11T12:01:31.734Z,46.0490
2022-10-11T12:02:32.823Z,46.1560
2022-10-11T12:03:37.973Z,46.2200
2022-10-11T12:04:35.187Z,45.7280
2022-10-11T12:05:37.455Z,46.0210
2022-10-11T12:06:52.441Z,46.1780
2022-10-11T12:07:42.001Z,46.1800
2022-10-11T12:08:44.182Z,46.1800
2022-10-11T12:09:46.375Z,46.1340
2022-10-11T12:10:48.571Z,46.0690
2022-10-11T12:11:50.755Z,46.1240
2022-10-11T12:12:52.982Z,46.1740
2022-10-11T12:13:55.172Z,46.1240
2022-10-11T12:14:57.408Z,46.1560
2022-10-11T12:15:59.655Z,46.0850
2022-10-11T12:16:59.751Z,46.0640
2022-10-11T12:18:02.020Z,46.0580
2022-10-11T12:19:04.205Z,45.9860
2022-10-11T12:20:06.430Z,46.0240
2022-10-11T12:21:09.200Z,46.0380
2022-10-11T12:22:10.875Z,45.8990
2022-10-11T12:23:16.657Z,45.9520
2022-10-11T12:24:15.285Z,45.9620
2022-10-11T12:25:18.721Z,45.9760
2022-10-11T12:26:19.705Z,46.0440
2022-10-11T12:28:37.236Z,45.7370
2022-10-11T12:29:37.092Z,45.8650
2022-10-11T12:30:39.216Z,45.9200
2022-10-11T12:31:45.983Z,45.9740
2022-10-11T12:32:43.526Z,46.0100
2022-10-11T12:33:45.724Z,46.0780
2022-10-11T12:34:47.886Z,46.0480
2022-10-11T12:35:49.952Z,45.9820
2022-10-11T12:36:52.019Z,46.0200